Time;durP1;ratioP1;P1;durP2;ratioP2;P2;SDS_P1;SDS_P2;PMS_P1;PMS_P2;Temp;Humidity;BMP_temperature;BMP_pressure;BME280_temperature;BME280_humidity;BME280_pressure;Samples;Min_cycle;Max_cycle;Signal;HPM_P1;HPM_P2
2022/09/19 00:00:06;;;;;;;2.70;1.00;;;;;;;12.01;81.89;99566.00;2040044;28;20377;-71
2022/09/19 00:01:19;;;;;;;6.28;0.98;;;;;;;12.04;81.99;99565.38;2057310;28;20043;-71
2022/09/19 00:02:25;;;;;;;6.60;1.38;;;;;;;12.05;82.08;99567.00;2070110;28;20034;-70
2022/09/19 00:03:35;;;;;;;5.25;1.08;;;;;;;12.04;81.78;99565.38;2063340;28;20587;-71
2022/09/19 00:04:40;;;;;;;4.68;0.80;;;;;;;12.03;81.98;99559.22;2063707;28;20537;-71
2022/09/19 00:05:44;;;;;;;7.55;0.90;;;;;;;12.05;81.90;99562.41;2055402;28;20047;-72
2022/09/19 00:06:49;;;;;;;3.90;0.80;;;;;;;12.06;81.89;99558.59;2056039;28;20089;-72
2022/09/19 00:07:55;;;;;;;3.90;0.98;;;;;;;12.05;81.75;99564.31;2064084;28;20058;-72
2022/09/19 00:09:02;;;;;;;4.32;0.90;;;;;;;12.04;81.96;99560.00;2063027;28;20054;-72
2022/09/19 00:10:07;;;;;;;5.38;1.02;;;;;;;12.04;81.86;99560.00;2064220;28;20053;-72
2022/09/19 00:11:11;;;;;;;4.97;1.13;;;;;;;12.04;81.67;99560.00;2063757;28;20726;-74
2022/09/19 00:12:15;;;;;;;4.53;1.20;;;;;;;12.00;81.91;99556.34;2063623;28;20061;-71
2022/09/19 00:13:17;;;;;;;4.35;1.20;;;;;;;12.01;81.75;99563.31;2063352;28;20042;-71
2022/09/19 00:14:27;;;;;;;6.68;1.02;;;;;;;11.98;81.90;99559.38;2055460;28;20050;-72
2022/09/19 00:15:30;;;;;;;4.20;1.17;;;;;;;12.00;81.73;99557.13;2047352;29;20078;-71
2022/09/19 00:16:34;;;;;;;2.47;1.10;;;;;;;11.96;81.87;99552.69;2039830;29;20043;-71
2022/09/19 00:17:38;;;;;;;4.28;0.80;;;;;;;11.99;81.79;99552.09;2048686;28;20039;-72
2022/09/19 00:18:43;;;;;;;3.45;1.25;;;;;;;11.96;81.74;99548.09;2062710;28;20038;-72
2022/09/19 00:19:46;;;;;;;3.53;1.05;;;;;;;11.94;81.81;99549.50;2055963;28;20046;-71
2022/09/19 00:20:50;;;;;;;3.90;1.02;;;;;;;11.97;81.78;99546.19;2055594;28;20038;-72
2022/09/19 00:21:58;;;;;;;3.03;1.10;;;;;;;11.98;81.57;99545.91;2062261;28;20038;-72
2022/09/19 00:26:01;;;;;;;1.77;0.60;;;;;;;11.96;81.86;99552.69;2058289;28;20043;-71
2022/09/19 00:27:06;;;;;;;4.30;1.15;;;;;;;11.97;81.91;99549.69;2063302;28;20041;-70
2022/09/19 00:28:08;;;;;;;4.38;1.02;;;;;;;11.96;81.64;99552.69;2060819;28;20041;-71
2022/09/19 00:29:15;;;;;;;3.25;1.00;;;;;;;11.96;81.84;99553.50;2059423;28;20534;-72
2022/09/19 00:30:17;;;;;;;2.53;1.00;;;;;;;11.99;82.01;99557.47;2056175;28;20039;-72
2022/09/19 00:31:24;;;;;;;2.88;0.85;;;;;;;11.98;81.79;99555.84;2063465;28;20049;-71
2022/09/19 00:32:31;;;;;;;2.92;0.82;;;;;;;11.93;81.99;99559.50;2059911;28;20042;-71
2022/09/19 00:33:35;;;;;;;3.33;0.90;;;;;;;11.88;81.96;99562.31;2040229;29;20044;-71
2022/09/19 00:34:45;;;;;;;1.77;0.80;;;;;;;11.89;81.94;99563.16;2048467;28;20066;-72
2022/09/19 00:35:54;;;;;;;3.30;0.93;;;;;;;11.85;82.10;99564.84;2062783;28;20030;-72
2022/09/19 00:36:56;;;;;;;4.05;1.00;;;;;;;11.83;82.08;99565.94;2056197;28;20066;-70
2022/09/19 00:38:03;;;;;;;4.13;0.93;;;;;;;11.86;82.09;99561.06;2047345;28;20043;-71
2022/09/19 00:39:13;;;;;;;3.85;1.13;;;;;;;11.89;82.10;99568.53;2049865;28;20045;-71
2022/09/19 00:40:21;;;;;;;2.78;1.02;;;;;;;11.86;82.11;99566.47;2055890;28;20557;-71
2022/09/19 00:41:28;;;;;;;3.65;1.08;;;;;;;11.77;82.23;99561.78;2056196;28;20047;-71
2022/09/19 00:42:30;;;;;;;4.20;1.38;;;;;;;11.80;82.03;99563.84;2048248;28;20050;-71
2022/09/19 00:43:54;;;;;;;4.43;1.05;;;;;;;11.83;81.91;99560.53;2047539;28;20070;-71
2022/09/19 00:45:07;;;;;;;1.35;0.80;;;;;;;11.80;82.08;99566.56;2045986;28;20116;-72
2022/09/19 00:46:11;;;;;;;4.15;1.10;;;;;;;11.79;82.12;99570.38;2049892;28;20039;-70
2022/09/19 00:47:17;;;;;;;1.23;0.82;;;;;;;11.78;82.23;99573.34;2039798;29;20495;-71
2022/09/19 00:48:25;;;;;;;4.32;1.27;;;;;;;11.76;82.55;99570.97;2040412;28;20054;-71
2022/09/19 00:49:33;;;;;;;3.95;1.05;;;;;;;11.73;82.63;99568.91;2055212;28;20061;-71
2022/09/19 00:50:36;;;;;;;4.05;1.27;;;;;;;11.76;82.40;99570.97;2053797;28;20051;-71
2022/09/19 00:51:48;;;;;;;1.70;1.00;;;;;;;11.70;82.72;99564.13;2055098;28;20548;-70
2022/09/19 00:52:59;;;;;;;5.55;1.30;;;;;;;11.70;82.62;99564.13;2055597;28;20050;-71
2022/09/19 00:54:12;;;;;;;4.45;1.50;;;;;;;11.70;82.81;99556.06;2067028;28;20049;-70
2022/09/19 00:55:18;;;;;;;3.65;1.38;;;;;;;11.63;83.18;99561.06;2056556;28;20074;-72
2022/09/19 00:56:23;;;;;;;1.92;1.17;;;;;;;11.63;83.23;99555.69;2057339;28;20055;-72
2022/09/19 00:57:40;;;;;;;2.50;1.30;;;;;;;11.65;83.36;99564.25;2057907;28;20058;-72
2022/09/19 00:58:47;;;;;;;4.68;1.50;;;;;;;11.69;83.53;99559.84;2059617;28;20057;-71
2022/09/19 00:59:49;;;;;;;2.75;1.40;;;;;;;11.69;83.31;99561.75;2065593;28;20038;-71
2022/09/19 01:00:52;;;;;;;2.45;1.30;;;;;;;11.69;83.16;99565.22;2050038;28;20046;-72
2022/09/19 01:01:56;;;;;;;4.30;1.40;;;;;;;11.72;83.18;99564.59;2049551;28;20102;-71
2022/09/19 01:02:58;;;;;;;6.97;1.40;;;;;;;11.73;83.25;99566.22;2056817;28;20541;-72
2022/09/19 01:04:14;;;;;;;4.65;1.58;;;;;;;11.73;83.40;99563.53;2048955;28;20047;-72
2022/09/19 01:05:17;;;;;;;4.60;1.50;;;;;;;11.69;83.08;99567.91;2048916;28;20047;-72
2022/09/19 01:06:34;;;;;;;4.75;1.63;;;;;;;11.71;83.26;99567.63;2049827;28;20047;-72
2022/09/19 01:07:56;;;;;;;2.67;1.40;;;;;;;11.69;83.33;99564.44;2056771;28;20054;-72
2022/09/19 01:09:07;;;;;;;3.65;1.33;;;;;;;11.71;83.47;99565.72;2065523;28;20065;-72
2022/09/19 01:10:36;;;;;;;2.67;1.50;;;;;;;11.73;83.15;99568.91;2072709;28;20113;-72
2022/09/19 01:11:57;;;;;;;3.60;1.33;;;;;;;11.72;83.08;99564.59;2072842;28;20057;-72
2022/09/19 01:13:09;;;;;;;5.00;1.50;;;;;;;11.72;82.91;99563.81;2064721;28;20046;-72
2022/09/19 01:14:39;;;;;;;1.77;1.25;;;;;;;11.77;82.89;99561.78;2062802;28;20038;-73
2022/09/19 01:15:43;;;;;;;4.43;1.40;;;;;;;11.79;83.13;99562.28;2072840;28;20056;-71
2022/09/19 01:16:52;;;;;;;1.90;1.17;;;;;;;11.73;83.10;99566.22;2064282;28;20038;-72
2022/09/19 01:17:59;;;;;;;3.63;1.85;;;;;;;11.73;82.90;99568.13;2062953;28;20421;-72
2022/09/19 01:19:29;;;;;;;4.50;1.38;;;;;;;11.78;82.92;99568.75;2072537;28;20537;-71
2022/09/19 01:21:37;;;;;;;2.80;1.35;;;;;;;11.86;82.60;99571.84;2064751;28;20046;-72
2022/09/19 01:22:43;;;;;;;2.58;1.42;;;;;;;11.80;82.59;99569.25;2064973;28;20057;-72
2022/09/19 01:23:59;;;;;;;3.05;1.48;;;;;;;11.82;82.75;99575.13;2064695;28;20050;-72
2022/09/19 01:25:54;;;;;;;3.72;1.20;;;;;;;11.79;82.65;99575.75;2064875;28;20065;-72
2022/09/19 01:27:23;;;;;;;2.63;1.10;;;;;;;11.74;83.18;99583.16;2032843;29;20048;-71
2022/09/19 01:28:35;;;;;;;1.85;0.98;;;;;;;11.72;83.13;99582.66;2069207;28;20049;-70
2022/09/19 01:29:47;;;;;;;6.05;2.50;;;;;;;11.68;83.19;99584.41;2066373;28;20299;-71
2022/09/19 01:31:21;;;;;;;4.35;1.50;;;;;;;11.66;83.44;99586.59;2064706;28;20045;-71
2022/09/19 01:32:31;;;;;;;3.25;1.40;;;;;;;11.66;83.42;99600.06;2060489;28;20590;-71
2022/09/19 01:33:34;;;;;;;3.60;1.52;;;;;;;11.64;83.47;99599.59;2048699;29;20043;-71
2022/09/19 01:34:43;;;;;;;2.95;1.20;;;;;;;11.65;83.40;99591.19;2041183;28;20042;-71
2022/09/19 01:35:53;;;;;;;2.35;1.50;;;;;;;11.65;83.46;99596.56;2056565;28;20078;-71
2022/09/19 01:37:41;;;;;;;6.47;1.40;;;;;;;11.67;83.87;99599.75;2040995;29;20048;-71
2022/09/19 01:38:49;;;;;;;2.40;1.38;;;;;;;11.53;84.07;99605.22;2052097;28;20426;-72
2022/09/19 01:40:01;;;;;;;4.53;1.38;;;;;;;11.48;84.31;99607.25;2064743;28;20108;-72
2022/09/19 01:41:08;;;;;;;6.03;1.90;;;;;;;11.50;84.62;99611.22;2058199;28;20038;-71
2022/09/19 01:42:19;;;;;;;3.35;1.50;;;;;;;11.54;84.52;99612.19;2057334;28;20061;-71
2022/09/19 01:43:22;;;;;;;3.83;1.55;;;;;;;11.49;84.63;99611.53;2057629;28;20039;-71
2022/09/19 01:44:25;;;;;;;3.80;1.48;;;;;;;11.47;84.52;99616.41;2056635;28;20477;-72
2022/09/19 01:45:38;;;;;;;2.97;1.20;;;;;;;11.49;84.68;99619.59;2049088;28;20039;-71
2022/09/19 01:47:02;;;;;;;2.53;1.35;;;;;;;11.54;84.99;99612.19;2061834;28;20050;-73
2022/09/19 01:48:09;;;;;;;3.85;1.52;;;;;;;11.49;85.09;99611.53;2059731;28;20062;-70
2022/09/19 01:49:27;;;;;;;2.63;1.65;;;;;;;11.50;84.87;99615.81;2057454;28;20054;-72
2022/09/19 01:50:37;;;;;;;4.68;1.73;;;;;;;11.48;85.07;99618.81;2058263;28;20038;-72
2022/09/19 01:51:46;;;;;;;5.25;2.35;;;;;;;11.49;84.95;99620.41;2065296;28;20038;-71
2022/09/19 01:53:11;;;;;;;3.47;1.42;;;;;;;11.45;85.37;99613.25;2064594;28;20042;-71
2022/09/19 01:54:56;;;;;;;3.58;1.55;;;;;;;11.34;85.78;99615.38;2069822;28;20030;-72
2022/09/19 01:56:09;;;;;;;2.85;1.50;;;;;;;11.43;85.63;99626.22;2064460;28;20421;-72
2022/09/19 01:57:34;;;;;;;4.68;1.40;;;;;;;11.45;85.62;99629.41;2049748;28;20671;-71
2022/09/19 01:58:42;;;;;;;4.55;1.55;;;;;;;11.44;85.82;99622.41;2055075;28;20038;-71
2022/09/19 02:00:05;;;;;;;4.80;1.60;;;;;;;11.39;85.81;99617.19;2056243;28;20058;-71
2022/09/19 02:01:29;;;;;;;2.15;1.17;;;;;;;11.39;85.93;99625.25;2056042;28;20074;-71
2022/09/19 02:02:44;;;;;;;2.90;1.33;;;;;;;11.38;85.84;99619.06;2051475;28;20123;-71
2022/09/19 02:04:00;;;;;;;2.67;1.70;;;;;;;11.42;85.71;99625.44;2064222;28;20045;-71
2022/09/19 02:05:03;;;;;;;3.97;1.83;;;;;;;11.47;85.79;99627.19;2059337;28;20046;-72
2022/09/19 02:06:10;;;;;;;4.07;1.48;;;;;;;11.50;85.79;99626.56;2064392;28;20034;-72
2022/09/19 02:07:43;;;;;;;4.30;1.52;;;;;;;11.47;85.77;99621.81;2064180;28;20050;-71
2022/09/19 02:09:17;;;;;;;7.15;1.40;;;;;;;11.48;85.33;99628.78;2060832;28;20042;-72
2022/09/19 02:10:32;;;;;;;6.00;1.70;;;;;;;11.49;85.50;99627.69;2054243;28;20680;-71
2022/09/19 02:11:35;;;;;;;3.80;1.58;;;;;;;11.53;85.95;99626.75;2041802;29;20468;-72
2022/09/19 02:12:40;;;;;;;5.40;1.58;;;;;;;11.57;85.56;99616.97;2048451;28;20039;-72
2022/09/19 02:14:03;;;;;;;5.97;1.50;;;;;;;11.62;85.65;99613.34;2064415;28;20145;-72
2022/09/19 02:15:10;;;;;;;2.95;1.48;;;;;;;11.66;85.77;99605.44;2048192;29;20043;-70
2022/09/19 02:16:24;;;;;;;3.78;1.52;;;;;;;11.71;85.59;99622.25;2049892;28;20047;-70
2022/09/19 02:17:44;;;;;;;3.53;1.40;;;;;;;11.74;85.73;99610.09;2066884;28;20038;-70
2022/09/19 02:19:18;;;;;;;2.63;1.40;;;;;;;11.75;85.42;99612.47;2056177;28;20430;-70
2022/09/19 02:20:27;;;;;;;3.10;1.50;;;;;;;11.77;85.42;99615.66;2052057;28;20039;-71
2022/09/19 02:21:39;;;;;;;3.38;1.30;;;;;;;11.78;84.95;99624.50;2049057;28;20043;-71
2022/09/19 02:22:53;;;;;;;7.75;1.63;;;;;;;11.76;85.24;99619.47;2057361;28;20061;-70
2022/09/19 02:24:05;;;;;;;3.22;1.30;;;;;;;11.70;85.11;99619.91;2056337;28;20157;-72
2022/09/19 02:25:17;;;;;;;2.50;1.10;;;;;;;11.69;85.04;99626.38;2058081;28;20042;-72
2022/09/19 02:26:26;;;;;;;3.00;1.25;;;;;;;11.65;84.41;99617.31;2063637;28;20042;-71
2022/09/19 02:27:38;;;;;;;1.10;0.80;;;;;;;11.67;84.85;99625.91;2048158;29;20043;-72
2022/09/19 02:28:45;;;;;;;2.88;1.00;;;;;;;11.69;84.59;99624.47;2060121;28;20051;-72
2022/09/19 02:30:00;;;;;;;3.95;1.10;;;;;;;11.71;84.36;99624.16;2064319;28;20042;-72
2022/09/19 02:31:08;;;;;;;1.80;0.80;;;;;;;11.72;84.15;99629.22;2063969;28;20038;-71
2022/09/19 02:32:19;;;;;;;2.80;0.82;;;;;;;11.72;84.05;99621.16;2049264;28;20035;-71
2022/09/19 02:33:31;;;;;;;1.35;0.88;;;;;;;11.73;84.04;99620.06;2058776;28;20053;-71
2022/09/19 02:34:36;;;;;;;3.70;0.93;;;;;;;11.73;83.85;99619.28;2056156;28;20053;-71
2022/09/19 02:35:52;;;;;;;1.85;0.68;;;;;;;11.72;83.58;99623.84;2048257;28;20046;-71
2022/09/19 02:37:05;;;;;;;1.90;0.70;;;;;;;11.71;83.51;99616.88;2044363;28;20447;-72
2022/09/19 02:38:19;;;;;;;1.88;0.88;;;;;;;11.68;83.40;99614.03;2050625;28;20047;-71
2022/09/19 02:39:55;;;;;;;3.28;0.80;;;;;;;11.70;83.52;99612.59;2058423;28;20415;-71
2022/09/19 02:41:17;;;;;;;1.85;1.08;;;;;;;11.76;83.53;99607.91;2053597;28;20047;-72
2022/09/19 02:43:14;;;;;;;2.67;0.90;;;;;;;11.77;83.62;99604.09;2063614;28;20050;-72
2022/09/19 02:44:52;;;;;;;1.40;0.80;;;;;;;11.79;83.60;99604.56;2050466;28;20048;-71
2022/09/19 02:46:00;;;;;;;1.70;1.02;;;;;;;11.80;83.44;99600.78;2062997;28;20050;-71
2022/09/19 02:47:42;;;;;;;2.03;1.10;;;;;;;11.81;83.57;99603.16;2064205;28;20042;-71
2022/09/19 02:48:49;;;;;;;2.15;0.82;;;;;;;11.83;83.54;99603.63;2030870;29;20048;-71
2022/09/19 02:49:57;;;;;;;2.05;1.02;;;;;;;11.86;83.63;99601.47;2039203;28;20059;-71
2022/09/19 02:51:07;;;;;;;2.55;0.90;;;;;;;11.81;83.35;99595.06;2056079;28;20041;-72
2022/09/19 02:52:20;;;;;;;2.05;0.98;;;;;;;11.83;83.48;99598.25;2056748;28;20053;-72
2022/09/19 02:53:29;;;;;;;3.50;1.08;;;;;;;11.74;83.75;99594.72;2056845;28;20042;-72
2022/09/19 02:54:42;;;;;;;2.55;1.20;;;;;;;11.75;83.46;99590.91;2048416;28;20039;-72
2022/09/19 02:55:49;;;;;;;1.58;0.80;;;;;;;11.78;83.48;99597.59;2050087;28;20039;-70
2022/09/19 02:56:52;;;;;;;4.05;1.20;;;;;;;11.80;83.30;99590.00;2051310;28;20035;-71
2022/09/19 02:58:04;;;;;;;2.65;1.20;;;;;;;11.76;83.42;99592.53;2034346;29;20090;-72
2022/09/19 02:59:20;;;;;;;2.10;1.13;;;;;;;11.79;83.20;99594.59;2051807;28;20051;-72
2022/09/19 03:00:32;;;;;;;2.08;1.10;;;;;;;11.79;83.27;99600.00;2063396;28;20414;-71
2022/09/19 03:01:37;;;;;;;1.98;1.13;;;;;;;11.79;83.36;99597.28;2047841;28;20063;-71
2022/09/19 03:02:44;;;;;;;2.58;1.30;;;;;;;11.80;83.66;99598.88;2055073;28;20057;-71
2022/09/19 03:05:21;;;;;;;2.95;1.10;;;;;;;11.78;83.65;99593.00;2055789;28;20053;-72
2022/09/19 03:06:39;;;;;;;3.30;1.20;;;;;;;11.81;83.85;99594.28;2055659;28;20066;-72
2022/09/19 03:08:00;;;;;;;1.50;0.98;;;;;;;11.81;83.60;99588.88;2049992;28;20054;-72
2022/09/19 03:09:08;;;;;;;1.98;1.00;;;;;;;11.71;83.87;99589.94;2050278;28;20039;-72
2022/09/19 03:10:16;;;;;;;4.05;1.10;;;;;;;11.74;83.82;99594.72;2049838;28;20047;-71
2022/09/19 03:11:33;;;;;;;4.30;1.30;;;;;;;11.75;83.62;99585.53;2049504;28;20491;-71
2022/09/19 03:12:50;;;;;;;4.70;1.30;;;;;;;11.75;83.81;99590.13;2049786;28;20173;-71
2022/09/19 03:13:57;;;;;;;3.97;1.05;;;;;;;11.79;83.70;99591.09;2055522;28;20042;-71
2022/09/19 03:15:02;;;;;;;3.88;1.33;;;;;;;11.80;83.62;99581.91;2056186;28;20050;-72
2022/09/19 03:16:15;;;;;;;1.35;1.10;;;;;;;11.81;83.45;99584.28;2071356;28;20050;-72
2022/09/19 03:17:23;;;;;;;3.15;1.17;;;;;;;11.77;83.50;99582.53;2070783;28;20525;-71
2022/09/19 03:18:31;;;;;;;3.75;1.52;;;;;;;11.74;83.21;99583.16;2063490;28;20041;-72
2022/09/19 03:19:41;;;;;;;1.42;0.90;;;;;;;11.76;83.19;99580.97;2055964;28;20054;-71
2022/09/19 03:20:54;;;;;;;2.90;1.00;;;;;;;11.76;83.41;99575.56;2056757;28;20042;-72
2022/09/19 03:22:04;;;;;;;4.53;1.10;;;;;;;11.78;83.41;99578.75;2065319;28;20073;-72
2022/09/19 03:23:19;;;;;;;0.90;0.70;;;;;;;11.79;83.33;99575.75;2063649;28;20034;-71
2022/09/19 03:24:26;;;;;;;4.15;1.05;;;;;;;11.77;83.24;99580.63;2057413;28;20046;-72
2022/09/19 03:25:31;;;;;;;2.28;0.80;;;;;;;11.79;83.31;99574.94;2051172;28;20469;-72
2022/09/19 03:26:36;;;;;;;2.33;1.00;;;;;;;11.80;83.17;99577.31;2048276;28;20046;-72
2022/09/19 03:27:41;;;;;;;4.55;0.88;;;;;;;11.81;83.25;99578.91;2060290;28;20060;-72
2022/09/19 03:28:47;;;;;;;4.15;1.35;;;;;;;11.81;83.19;99581.59;2055202;28;20050;-72
2022/09/19 03:29:50;;;;;;;3.85;1.08;;;;;;;11.82;83.19;99585.91;2039982;28;20617;-72
2022/09/19 03:30:55;;;;;;;3.45;1.30;;;;;;;11.80;82.94;99580.03;2056014;28;20038;-72
2022/09/19 03:32:03;;;;;;;2.03;0.85;;;;;;;11.82;82.72;99579.69;2066174;28;20050;-72
2022/09/19 03:33:07;;;;;;;4.22;0.60;;;;;;;11.81;82.86;99584.28;2047347;28;20522;-71
2022/09/19 03:34:12;;;;;;;1.00;0.70;;;;;;;11.83;82.86;99581.31;2048400;28;20373;-71
2022/09/19 03:35:19;;;;;;;1.23;0.70;;;;;;;11.80;82.80;99574.63;2066376;28;20053;-71
2022/09/19 03:36:27;;;;;;;1.67;0.77;;;;;;;11.79;82.82;99573.06;2062672;28;20042;-72
2022/09/19 03:37:34;;;;;;;2.90;0.90;;;;;;;11.80;82.63;99582.72;2056216;28;20065;-72
2022/09/19 03:38:44;;;;;;;1.48;0.85;;;;;;;11.79;82.56;99581.13;2063539;28;20486;-71
2022/09/19 03:39:48;;;;;;;3.20;1.10;;;;;;;11.77;82.61;99583.34;2063579;28;20421;-72
2022/09/19 03:40:53;;;;;;;1.85;0.70;;;;;;;11.76;82.51;99586.34;2047255;29;20522;-72
2022/09/19 03:41:56;;;;;;;2.20;0.93;;;;;;;11.76;82.31;99589.03;2047360;29;20511;-71
2022/09/19 03:43:01;;;;;;;1.65;0.60;;;;;;;11.76;82.50;99589.84;2047870;28;20055;-72
2022/09/19 03:44:08;;;;;;;2.70;0.75;;;;;;;11.76;82.12;99587.13;2055479;28;20038;-73
2022/09/19 03:45:11;;;;;;;1.88;1.02;;;;;;;11.77;82.25;99588.72;2048120;28;20440;-73
2022/09/19 03:46:21;;;;;;;0.90;0.70;;;;;;;11.77;82.18;99594.09;2050207;28;20525;-73
2022/09/19 03:47:27;;;;;;;1.65;0.80;;;;;;;11.75;82.26;99596.31;2064715;28;20052;-72
2022/09/19 03:48:32;;;;;;;1.50;0.70;;;;;;;11.72;82.23;99596.91;2063315;28;20046;-73
2022/09/19 03:49:34;;;;;;;1.90;0.95;;;;;;;11.70;82.17;99601.84;2055209;28;20043;-73
2022/09/19 03:50:37;;;;;;;1.98;0.90;;;;;;;11.70;82.00;99609.13;2040021;28;20400;-73
2022/09/19 03:51:49;;;;;;;1.27;0.68;;;;;;;11.67;81.82;99599.75;2048650;28;20059;-73
2022/09/19 03:52:54;;;;;;;0.80;0.45;;;;;;;11.63;81.76;99603.38;2056375;28;20035;-73
2022/09/19 03:53:56;;;;;;;0.60;0.50;;;;;;;11.63;81.80;99604.16;2055018;28;20058;-73
2022/09/19 03:55:04;;;;;;;0.70;0.55;;;;;;;11.64;81.52;99600.38;2064130;28;20030;-73
2022/09/19 03:56:16;;;;;;;2.25;0.70;;;;;;;11.64;81.35;99605.75;2055375;28;20446;-72
2022/09/19 03:57:22;;;;;;;0.68;0.40;;;;;;;11.64;81.19;99603.06;2039851;28;20056;-72
2022/09/19 03:58:28;;;;;;;1.27;0.60;;;;;;;11.64;81.24;99604.97;2041337;28;20074;-73
2022/09/19 03:59:30;;;;;;;1.00;0.70;;;;;;;11.64;81.17;99603.06;2048029;28;20486;-72
2022/09/19 04:00:34;;;;;;;1.40;0.75;;;;;;;11.64;80.93;99605.75;2054887;28;20422;-73
2022/09/19 04:01:38;;;;;;;2.38;0.80;;;;;;;11.54;81.16;99606.03;2054934;28;20118;-72
2022/09/19 04:02:41;;;;;;;2.20;0.80;;;;;;;11.54;80.96;99611.41;2055243;28;20042;-72
2022/09/19 04:03:46;;;;;;;0.70;0.63;;;;;;;11.49;80.86;99608.84;2054801;28;20058;-71
2022/09/19 04:04:54;;;;;;;1.30;0.80;;;;;;;11.50;80.92;99605.03;2048040;28;20035;-72
2022/09/19 04:05:59;;;;;;;1.52;0.60;;;;;;;11.51;80.98;99614.72;2048364;28;20056;-72
2022/09/19 04:07:05;;;;;;;1.50;0.63;;;;;;;11.49;81.10;99615.00;2048303;28;20550;-72
2022/09/19 04:08:15;;;;;;;1.15;0.68;;;;;;;11.54;81.03;99611.41;2049001;28;20043;-73
2022/09/19 04:09:22;;;;;;;3.55;0.82;;;;;;;11.54;80.54;99619.50;2055415;28;20403;-73
2022/09/19 04:10:29;;;;;;;0.70;0.57;;;;;;;11.52;80.91;99611.72;2062754;28;20042;-72
2022/09/19 04:11:35;;;;;;;1.38;0.80;;;;;;;11.52;80.73;99617.09;2059932;28;20057;-72
2022/09/19 04:12:37;;;;;;;3.97;0.95;;;;;;;11.47;80.51;99616.41;2063636;28;20038;-71
2022/09/19 04:13:38;;;;;;;1.25;0.70;;;;;;;11.49;80.45;99616.91;2069620;28;20033;-71
2022/09/19 04:14:51;;;;;;;1.73;0.77;;;;;;;11.50;80.93;99607.72;2060792;28;20054;-72
2022/09/19 04:15:57;;;;;;;2.30;0.82;;;;;;;11.54;80.54;99617.59;2056028;28;20034;-71
2022/09/19 04:17:07;;;;;;;2.65;0.65;;;;;;;11.55;80.50;99621.06;2056298;28;20053;-72
2022/09/19 04:18:09;;;;;;;1.60;0.70;;;;;;;11.56;80.69;99623.44;2048220;28;20043;-74
2022/09/19 04:19:17;;;;;;;1.73;0.70;;;;;;;11.59;80.59;99630.91;2048547;28;20530;-72
2022/09/19 04:20:55;;;;;;;0.63;0.50;;;;;;;11.56;80.54;99631.53;2029336;29;20040;-72
2022/09/19 04:22:18;;;;;;;3.33;0.55;;;;;;;11.54;80.49;99627.56;2029373;29;20059;-72
2022/09/19 04:23:44;;;;;;;1.92;0.50;;;;;;;11.58;80.63;99639.31;2057404;28;20101;-73
2022/09/19 04:25:22;;;;;;;1.23;0.50;;;;;;;11.48;80.34;99644.94;2059664;28;20065;-71
2022/09/19 04:26:49;;;;;;;0.98;0.30;;;;;;;11.36;80.45;99648.19;2049592;28;20050;-72
2022/09/19 04:27:55;;;;;;;1.50;0.60;;;;;;;11.33;80.45;99654.97;2047199;28;20047;-72
2022/09/19 04:28:59;;;;;;;0.90;0.50;;;;;;;11.28;80.50;99652.38;2055676;28;20046;-71
2022/09/19 04:30:04;;;;;;;0.82;0.50;;;;;;;11.33;80.51;99654.97;2055154;28;20038;-72
2022/09/19 04:31:12;;;;;;;4.22;0.70;;;;;;;11.31;80.84;99651.78;2048789;28;20411;-72
2022/09/19 04:32:15;;;;;;;1.63;0.50;;;;;;;11.28;81.17;99647.00;2054445;28;20038;-73
2022/09/19 04:33:18;;;;;;;2.60;0.77;;;;;;;11.33;81.12;99654.97;2056973;28;20038;-73
2022/09/19 04:34:21;;;;;;;1.10;0.50;;;;;;;11.35;81.32;99652.78;2056344;28;20061;-73
2022/09/19 04:35:25;;;;;;;1.05;0.80;;;;;;;11.41;81.59;99647.25;2052832;28;20054;-73
2022/09/19 04:36:31;;;;;;;0.63;0.40;;;;;;;11.39;81.37;99649.47;2049343;28;20046;-72
2022/09/19 04:37:39;;;;;;;0.80;0.50;;;;;;;11.42;81.48;99652.34;2057845;28;20050;-73
2022/09/19 04:38:48;;;;;;;0.82;0.60;;;;;;;11.42;81.36;99652.34;2050352;28;20039;-74
2022/09/19 04:39:56;;;;;;;2.00;0.63;;;;;;;11.48;81.63;99644.94;2056932;28;20035;-74
2022/09/19 04:40:59;;;;;;;2.05;0.60;;;;;;;11.50;81.53;99643.50;2056820;28;20405;-75
2022/09/19 04:42:08;;;;;;;1.08;0.70;;;;;;;11.53;81.36;99644.81;2043690;28;20055;-75
2022/09/19 04:43:12;;;;;;;2.70;0.60;;;;;;;11.54;81.52;99643.72;2043034;28;20058;-75
2022/09/19 04:44:16;;;;;;;2.33;0.70;;;;;;;11.54;81.25;99639.13;2041710;29;20138;-75
2022/09/19 04:45:56;;;;;;;1.15;0.60;;;;;;;11.57;81.42;99640.41;2055504;28;20039;-74
2022/09/19 04:47:10;;;;;;;1.38;0.70;;;;;;;11.59;81.55;99644.38;2063857;28;20046;-74
2022/09/19 04:48:15;;;;;;;1.50;0.52;;;;;;;11.61;81.39;99646.75;2058708;28;20047;-75
2022/09/19 04:49:17;;;;;;;1.02;0.60;;;;;;;11.59;81.10;99648.97;2057196;28;20038;-75
2022/09/19 04:50:22;;;;;;;1.85;0.57;;;;;;;11.49;81.35;99649.22;2049092;28;20047;-74
2022/09/19 04:51:37;;;;;;;1.02;0.50;;;;;;;11.49;81.11;99646.53;2058139;28;20065;-73
2022/09/19 04:52:40;;;;;;;1.75;0.65;;;;;;;11.54;81.37;99654.50;2064908;28;20050;-74
2022/09/19 04:53:45;;;;;;;3.38;0.63;;;;;;;11.57;81.28;99653.88;2056737;28;20046;-74
2022/09/19 04:54:50;;;;;;;2.58;0.68;;;;;;;11.55;81.26;99653.38;2048891;28;20043;-72
2022/09/19 04:55:55;;;;;;;1.38;0.70;;;;;;;11.49;81.28;99658.09;2040153;28;20039;-73
2022/09/19 04:56:59;;;;;;;1.30;0.65;;;;;;;11.53;81.58;99658.25;2047934;28;20538;-72
2022/09/19 04:58:04;;;;;;;0.70;0.52;;;;;;;11.52;81.63;99660.16;2045174;28;20055;-73
2022/09/19 04:59:09;;;;;;;2.00;0.82;;;;;;;11.47;81.46;99654.88;2043617;28;20044;-73
2022/09/19 05:00:36;;;;;;;2.30;0.40;;;;;;;11.48;81.50;99655.72;2048243;28;20098;-70
2022/09/19 05:01:38;;;;;;;1.20;0.60;;;;;;;11.53;81.71;99658.25;2057716;28;20073;-74
2022/09/19 05:02:47;;;;;;;3.55;0.60;;;;;;;11.57;81.42;99653.88;2047669;29;20039;-72
2022/09/19 05:03:56;;;;;;;2.25;0.60;;;;;;;11.60;81.55;99653.22;2048838;28;20106;-72
2022/09/19 05:05:01;;;;;;;1.42;0.80;;;;;;;11.56;81.50;99649.56;2048564;28;20379;-72
2022/09/19 05:06:09;;;;;;;0.65;0.52;;;;;;;11.55;81.68;99658.75;2062114;28;20062;-70
2022/09/19 05:07:13;;;;;;;0.90;0.65;;;;;;;11.57;81.60;99651.19;2046671;29;20925;-73
2022/09/19 05:08:25;;;;;;;0.50;0.47;;;;;;;11.61;81.54;99660.22;2049291;28;20045;-72
2022/09/19 05:09:29;;;;;;;0.65;0.60;;;;;;;11.64;81.55;99658.81;2070612;28;20053;-72
2022/09/19 05:10:42;;;;;;;0.95;0.75;;;;;;;11.64;81.69;99654.22;2062696;28;20510;-72
2022/09/19 05:11:46;;;;;;;0.70;0.47;;;;;;;11.65;81.86;99655.81;2054465;28;20519;-73
2022/09/19 05:12:48;;;;;;;1.73;0.70;;;;;;;11.65;81.63;99653.13;2062582;28;20057;-73
2022/09/19 05:13:53;;;;;;;0.63;0.50;;;;;;;11.69;81.65;99651.38;2062733;28;20050;-73
2022/09/19 05:15:00;;;;;;;1.00;0.50;;;;;;;11.70;81.86;99650.31;2055528;28;20094;-73
2022/09/19 05:16:03;;;;;;;1.27;1.05;;;;;;;11.72;81.92;99656.16;2055136;28;20066;-74
2022/09/19 05:17:09;;;;;;;3.22;0.55;;;;;;;11.75;81.83;99652.84;2050513;28;20047;-73
2022/09/19 05:18:19;;;;;;;0.65;0.50;;;;;;;11.78;82.05;99659.53;2041384;28;20060;-73
2022/09/19 05:19:22;;;;;;;1.10;0.50;;;;;;;11.80;82.04;99658.13;2054688;28;20051;-73
2022/09/19 05:20:33;;;;;;;1.90;0.90;;;;;;;11.82;81.96;99658.63;2060157;28;20046;-73
2022/09/19 05:21:36;;;;;;;1.77;0.70;;;;;;;11.85;81.89;99659.91;2054723;28;20429;-74
2022/09/19 05:22:44;;;;;;;2.30;0.70;;;;;;;11.85;81.88;99656.41;2047081;28;20047;-73
2022/09/19 05:23:45;;;;;;;2.45;1.00;;;;;;;11.83;81.76;99673.66;2046800;28;20043;-74
2022/09/19 05:24:53;;;;;;;0.85;0.70;;;;;;;11.81;81.84;99667.78;2054377;28;20038;-72
2022/09/19 05:26:02;;;;;;;0.93;0.65;;;;;;;11.80;81.83;99674.28;2054924;28;20463;-73
2022/09/19 05:27:06;;;;;;;1.00;0.60;;;;;;;11.73;82.06;99676.63;2047673;28;20053;-73
2022/09/19 05:28:12;;;;;;;1.20;0.77;;;;;;;11.74;82.01;99666.63;2055040;28;20062;-73
2022/09/19 05:29:18;;;;;;;1.73;0.70;;;;;;;11.71;82.10;99668.03;2054449;28;20061;-72
2022/09/19 05:30:40;;;;;;;1.27;0.80;;;;;;;11.77;81.99;99668.72;2043327;28;20423;-73
2022/09/19 05:31:55;;;;;;;0.82;0.73;;;;;;;11.79;81.89;99664.63;2057052;28;20061;-75
2022/09/19 05:33:18;;;;;;;0.95;0.60;;;;;;;11.82;81.91;99668.56;2061803;28;20050;-72
2022/09/19 05:34:22;;;;;;;1.05;0.60;;;;;;;11.83;81.90;99665.59;2059367;28;20049;-73
2022/09/19 05:35:31;;;;;;;2.10;0.60;;;;;;;11.83;82.17;99668.28;2062936;28;20505;-73
2022/09/19 05:36:51;;;;;;;1.23;0.70;;;;;;;11.85;82.00;99664.50;2070312;28;20052;-73